createdAt,value
2018-07-15T07:02:33.468Z,33.40
2018-07-15T07:10:03.782Z,28.70
2018-07-15T07:12:33.961Z,28.90
2018-07-15T07:15:04.221Z,29.10
2018-07-15T07:17:34.710Z,28.80
2018-07-15T07:22:34.534Z,29.30
2018-07-15T07:25:05.014Z,29.50
2018-07-15T07:27:35.546Z,29.60
2018-07-15T07:30:06.053Z,29.70
2018-07-15T07:32:36.546Z,29.80
2018-07-15T07:35:06.963Z,29.90
2018-07-15T07:37:37.835Z,29.80
2018-07-15T07:40:08.021Z,30.10
2018-07-15T07:47:37.341Z,30.40
2018-07-15T07:50:07.689Z,30.60
2018-07-15T07:52:37.856Z,30.80
2018-07-15T07:55:08.193Z,31.10
2018-07-15T07:57:38.445Z,31.20
2018-07-15T08:00:08.704Z,31.40
2018-07-15T08:02:39.750Z,31.20
2018-07-15T08:05:09.787Z,31.30
2018-07-15T08:07:39.859Z,31.30
2018-07-15T08:10:10.900Z,31.20
2018-07-15T08:12:40.758Z,31.20
2018-07-15T08:15:10.793Z,31.30
2018-07-15T08:17:42.812Z,31.50
2018-07-15T08:20:13.374Z,31.50
2018-07-15T08:22:43.462Z,31.70
2018-07-15T08:27:43.940Z,31.50
2018-07-15T08:30:24.816Z,31.40
2018-07-15T08:32:55.143Z,31.50
2018-07-15T08:35:26.904Z,31.90
2018-07-15T08:37:57.559Z,32.10
2018-07-15T08:40:27.844Z,32.50
2018-07-15T08:42:59.618Z,32.80
2018-07-15T08:45:30.215Z,33.20
2018-07-15T08:48:01.092Z,33.30
2018-07-15T08:50:31.424Z,33.00
2018-07-15T08:55:31.989Z,32.90
2018-07-15T08:58:02.347Z,32.50
2018-07-15T09:00:32.598Z,32.50
2018-07-15T09:03:03.009Z,32.50
2018-07-15T09:05:33.505Z,32.80
2018-07-15T09:08:03.697Z,33.00
2018-07-15T09:10:34.045Z,33.00
2018-07-15T09:13:04.226Z,33.10
2018-07-15T09:15:35.923Z,33.20
2018-07-15T09:20:36.190Z,33.30
2018-07-15T09:23:06.332Z,33.50
2018-07-15T09:25:36.817Z,33.60
2018-07-15T09:28:08.364Z,33.80
2018-07-15T09:33:11.858Z,33.70
2018-07-15T09:35:42.525Z,33.80
2018-07-15T09:38:12.771Z,34.00
2018-07-15T09:40:44.145Z,34.30
2018-07-15T09:43:14.264Z,34.50
2018-07-15T09:45:44.998Z,34.50
2018-07-15T09:50:45.398Z,34.40
2018-07-15T09:53:15.309Z,34.30
2018-07-15T09:55:45.502Z,34.50
2018-07-15T09:58:15.660Z,34.70
2018-07-15T10:00:51.385Z,34.70
2018-07-15T10:05:51.916Z,35.10
2018-07-15T10:08:23.101Z,35.10
2018-07-15T10:10:53.402Z,35.10
2018-07-15T10:15:53.076Z,35.20
2018-07-15T10:18:23.674Z,35.20
2018-07-15T10:20:53.819Z,35.30
2018-07-15T10:23:24.177Z,35.40
2018-07-15T10:25:54.291Z,35.40
2018-07-15T10:28:24.555Z,35.20
2018-07-15T10:30:54.573Z,35.20
2018-07-15T10:33:24.874Z,35.20
2018-07-15T10:38:24.620Z,35.10
2018-07-15T10:43:26.365Z,35.40
2018-07-15T10:45:56.405Z,35.40
2018-07-15T10:48:26.569Z,35.60
2018-07-15T10:50:56.612Z,35.80
2018-07-15T10:53:26.567Z,35.80
2018-07-15T10:58:26.421Z,35.80
2018-07-15T11:00:56.576Z,35.80
2018-07-15T11:03:27.846Z,35.80
2018-07-15T11:05:59.323Z,35.80
2018-07-15T11:08:29.505Z,35.70
2018-07-15T11:13:29.106Z,35.60
2018-07-15T11:15:58.953Z,35.60
2018-07-15T11:18:29.254Z,35.40
2018-07-15T11:20:59.468Z,35.40
2018-07-15T11:23:29.721Z,35.20
2018-07-15T11:28:29.571Z,34.80
2018-07-15T11:31:00.048Z,34.80
2018-07-15T11:38:30.548Z,34.50
2018-07-15T11:43:30.473Z,34.60
2018-07-15T11:46:00.499Z,34.50
2018-07-15T11:51:01.228Z,34.20
2018-07-15T11:53:31.812Z,34.10
2018-07-15T11:56:05.499Z,33.90
2018-07-15T11:58:36.152Z,33.90
2018-07-15T12:01:06.894Z,33.90
2018-07-15T12:03:37.064Z,33.80
2018-07-15T12:08:37.635Z,33.90
2018-07-15T12:11:08.066Z,34.00
2018-07-15T12:13:38.348Z,34.00
2018-07-15T12:21:08.988Z,34.10
2018-07-15T12:26:08.845Z,33.90
2018-07-15T12:28:40.584Z,34.10
2018-07-15T12:31:10.943Z,34.30
2018-07-15T12:33:45.997Z,34.70
2018-07-15T12:36:16.902Z,34.70
2018-07-15T12:38:47.406Z,34.80
2018-07-15T12:41:18.248Z,35.10
2018-07-15T12:43:49.196Z,35.60
2018-07-15T12:46:22.505Z,36.00
2018-07-15T12:51:22.920Z,36.30
2018-07-15T12:53:54.282Z,36.80
2018-07-15T12:59:04.017Z,37.20
2018-07-15T13:01:41.623Z,37.40
2018-07-15T13:04:14.830Z,37.20
2018-07-15T13:06:45.877Z,37.30
2018-07-15T13:09:18.634Z,37.40
2018-07-15T13:11:51.793Z,37.50
2018-07-15T13:14:31.229Z,37.50
2018-07-15T13:19:31.983Z,37.80
2018-07-15T13:22:02.411Z,38.00
2018-07-15T13:24:32.557Z,38.10
2018-07-15T13:27:02.923Z,38.30
2018-07-15T13:29:33.479Z,38.30
2018-07-15T13:32:03.842Z,38.50
2018-07-15T13:34:34.647Z,38.80
2018-07-15T13:37:05.130Z,39.00
2018-07-15T13:42:04.930Z,38.90
2018-07-15T13:47:06.468Z,38.90
2018-07-15T13:49:37.200Z,38.80
2018-07-15T13:52:07.509Z,38.80
2018-07-15T13:54:37.858Z,38.60
2018-07-15T13:57:08.183Z,38.90
2018-07-15T13:59:38.385Z,38.80
2018-07-15T14:02:08.756Z,38.90
2018-07-15T14:07:08.529Z,39.00
2018-07-15T14:09:38.580Z,39.00
2018-07-15T14:12:09.030Z,38.70
2018-07-15T14:14:39.427Z,38.70
2018-07-15T14:17:09.565Z,38.70
2018-07-15T14:19:39.390Z,39.00
2018-07-15T14:22:09.510Z,38.70
2018-07-15T14:27:09.508Z,39.00
2018-07-15T14:29:39.778Z,38.70
2018-07-15T14:34:39.865Z,39.10
2018-07-15T14:37:11.155Z,39.10
2018-07-15T14:42:12.651Z,39.20
2018-07-15T14:44:43.010Z,39.10
2018-07-15T14:47:13.541Z,39.20
2018-07-15T14:49:47.075Z,39.00
2018-07-15T14:52:22.186Z,38.80
2018-07-15T14:54:53.597Z,38.60
2018-07-15T14:57:24.157Z,38.70
2018-07-15T14:59:56.295Z,38.50
2018-07-15T15:02:26.344Z,38.60
2018-07-15T15:04:56.341Z,38.60
2018-07-15T15:07:26.784Z,38.50
2018-07-15T15:09:57.394Z,38.70
2018-07-15T15:12:32.371Z,38.60
2018-07-15T15:15:08.578Z,38.60
2018-07-15T15:17:48.785Z,38.50
2018-07-15T15:20:22.060Z,38.40
2018-07-15T15:22:52.403Z,38.30
2018-07-15T15:25:22.636Z,38.40
2018-07-15T15:30:24.369Z,38.20
2018-07-15T15:33:05.707Z,38.20
2018-07-15T15:38:05.216Z,38.00
2018-07-15T15:40:35.394Z,37.70
2018-07-15T15:43:07.290Z,37.80
2018-07-15T15:45:37.438Z,37.80
2018-07-15T15:48:07.858Z,37.90
2018-07-15T15:53:09.337Z,37.90
2018-07-15T15:55:39.331Z,37.20
2018-07-15T15:58:09.797Z,36.30
2018-07-15T16:00:40.712Z,36.10
2018-07-15T16:03:10.659Z,35.60
2018-07-15T16:05:40.787Z,35.50
2018-07-15T16:08:11.146Z,35.40
2018-07-15T16:10:41.393Z,35.50
2018-07-15T16:13:11.681Z,35.40
2018-07-15T16:18:11.231Z,35.80
2018-07-15T16:23:05.707Z,36.00
2018-07-15T16:25:35.928Z,36.40
2018-07-15T16:28:06.072Z,36.60
2018-07-15T16:33:06.119Z,36.40
2018-07-15T16:38:05.580Z,36.80
2018-07-15T16:40:35.689Z,36.40
2018-07-15T16:43:05.664Z,36.00
2018-07-15T16:45:35.948Z,36.10
2018-07-15T16:48:06.280Z,36.40
2018-07-15T16:50:36.603Z,36.60
2018-07-15T16:53:06.865Z,36.20
2018-07-15T16:55:37.540Z,35.80
2018-07-15T16:58:07.679Z,35.70
2018-07-15T17:00:37.887Z,35.30
2018-07-15T17:03:08.044Z,34.70
2018-07-15T17:05:38.367Z,34.10
2018-07-15T17:08:08.669Z,33.50
2018-07-15T17:10:40.476Z,32.90
2018-07-15T17:13:10.759Z,32.50
2018-07-15T17:15:41.399Z,32.00
2018-07-15T17:18:12.134Z,31.50
2018-07-15T17:20:42.688Z,31.50
2018-07-15T17:23:12.938Z,31.30
2018-07-15T17:25:44.949Z,31.10
2018-07-15T17:28:15.416Z,31.30
2018-07-15T17:30:46.559Z,31.70
2018-07-15T17:33:17.210Z,32.10
2018-07-15T17:35:49.074Z,32.20
2018-07-15T17:38:19.626Z,32.10
2018-07-15T17:40:49.964Z,31.80
2018-07-15T17:43:20.381Z,31.60
2018-07-15T17:45:50.616Z,31.10
2018-07-15T17:48:22.170Z,30.90
2018-07-15T17:50:52.611Z,30.90
2018-07-15T17:53:23.300Z,30.80
2018-07-15T17:55:53.809Z,30.70
2018-07-15T17:58:24.351Z,30.30
2018-07-15T18:03:24.855Z,30.10
2018-07-15T18:05:55.513Z,30.20
2018-07-15T18:08:25.890Z,29.90
2018-07-15T18:13:25.542Z,29.50
2018-07-15T18:15:56.513Z,29.30
2018-07-15T18:18:27.084Z,29.30
2018-07-15T18:23:29.546Z,29.60
2018-07-15T18:26:00.376Z,29.70
2018-07-15T18:28:30.922Z,29.50
2018-07-15T18:31:02.265Z,29.40
2018-07-15T18:33:32.739Z,29.30
2018-07-15T18:36:02.988Z,29.20
2018-07-15T18:38:33.291Z,29.20
2018-07-15T18:41:03.661Z,29.10
2018-07-15T18:43:33.836Z,29.20
2018-07-15T18:46:06.604Z,29.10
2018-07-15T18:48:38.722Z,29.00
2018-07-15T18:51:09.080Z,29.00
2018-07-15T18:56:08.845Z,28.60
2018-07-15T18:58:38.738Z,28.60
2018-07-15T19:01:08.732Z,28.70
2018-07-15T19:03:39.039Z,28.60
2018-07-15T19:08:38.735Z,28.40
2018-07-15T19:11:09.158Z,28.20
2018-07-15T19:13:40.247Z,28.10
2018-07-15T19:16:10.531Z,28.10
2018-07-15T19:18:40.676Z,27.90
2018-07-15T19:21:12.229Z,27.60
2018-07-15T19:23:44.153Z,27.60
2018-07-15T19:26:15.534Z,27.70
2018-07-15T19:28:46.364Z,27.80
2018-07-15T19:31:18.081Z,27.70
2018-07-15T19:33:49.048Z,27.50
2018-07-15T19:36:21.376Z,27.40
2018-07-15T19:38:51.718Z,27.30
2018-07-15T19:41:21.927Z,27.20
2018-07-15T19:43:51.972Z,27.10
2018-07-15T19:46:21.957Z,27.10
2018-07-15T19:48:52.240Z,27.10
2018-07-15T19:51:22.797Z,27.00
2018-07-15T19:53:52.975Z,27.00
2018-07-15T19:56:23.709Z,27.00
2018-07-15T20:01:23.991Z,27.00
2018-07-15T20:03:55.082Z,27.00
2018-07-15T20:06:25.791Z,27.00
2018-07-15T20:08:57.672Z,27.00
2018-07-15T20:11:29.289Z,27.00
2018-07-15T20:14:00.735Z,27.00
2018-07-15T20:16:35.604Z,27.10
2018-07-15T20:19:06.401Z,27.10
2018-07-15T20:21:37.796Z,27.10
2018-07-15T20:24:09.013Z,27.10
2018-07-15T20:26:44.972Z,27.10
2018-07-15T20:29:17.732Z,27.10
2018-07-15T20:31:49.197Z,27.10
2018-07-15T20:34:19.678Z,27.00
2018-07-15T20:36:50.089Z,27.00
2018-07-15T20:39:20.567Z,27.00
2018-07-15T20:41:50.732Z,26.90
2018-07-15T20:44:20.990Z,26.90
2018-07-15T20:46:52.084Z,26.90
2018-07-15T20:49:22.613Z,26.90
2018-07-15T20:51:52.876Z,26.80
2018-07-15T20:54:23.127Z,26.80
2018-07-15T20:56:53.375Z,26.80
2018-07-15T20:59:24.039Z,26.80
2018-07-15T21:01:54.509Z,26.80
2018-07-15T21:04:24.894Z,26.70
2018-07-15T21:06:55.648Z,26.70
2018-07-15T21:09:25.884Z,26.60
2018-07-15T21:11:56.558Z,26.60
2018-07-15T21:14:27.094Z,26.50
2018-07-15T21:16:57.491Z,26.50
2018-07-15T21:19:28.151Z,26.50
2018-07-15T21:24:29.309Z,26.50
2018-07-15T21:26:59.829Z,26.50
2018-07-15T21:29:30.905Z,26.40
2018-07-15T21:32:02.619Z,26.40
2018-07-15T21:34:33.008Z,26.40
2018-07-15T21:37:03.755Z,26.40
2018-07-15T21:39:34.880Z,26.30
2018-07-15T21:42:05.365Z,26.30
2018-07-15T21:44:35.691Z,26.30
2018-07-15T21:47:06.219Z,26.20
2018-07-15T21:49:36.618Z,26.20
2018-07-15T21:52:07.400Z,26.20
2018-07-15T21:54:38.013Z,26.20
2018-07-15T21:57:08.421Z,26.20
2018-07-15T21:59:39.134Z,26.20
2018-07-15T22:02:10.123Z,26.10
2018-07-15T22:04:40.643Z,26.10
2018-07-15T22:07:21.919Z,26.00
2018-07-15T22:10:03.277Z,25.90
2018-07-15T22:15:03.204Z,25.80
2018-07-15T22:17:34.561Z,25.70
2018-07-15T22:20:05.323Z,25.70
2018-07-15T22:22:35.950Z,25.70
2018-07-15T22:25:07.497Z,25.80
2018-07-15T22:27:37.876Z,25.80
2018-07-15T22:32:40.499Z,25.80
2018-07-15T22:35:12.617Z,25.90
2018-07-15T22:37:43.982Z,25.90
2018-07-15T22:40:15.907Z,25.90
2018-07-15T22:42:46.392Z,25.90
2018-07-15T22:47:46.420Z,26.00
2018-07-15T22:52:46.137Z,26.20
2018-07-15T22:57:45.960Z,26.30
2018-07-15T23:00:16.351Z,26.30
2018-07-15T23:02:46.862Z,26.30
2018-07-15T23:05:44.429Z,26.30
2018-07-15T23:08:14.915Z,26.30
2018-07-15T23:10:44.935Z,26.30
2018-07-15T23:13:15.871Z,26.20
2018-07-15T23:15:46.162Z,26.10
2018-07-15T23:20:46.679Z,26.00
2018-07-15T23:23:17.400Z,25.90
2018-07-15T23:25:47.995Z,25.80
2018-07-15T23:28:19.278Z,25.80
2018-07-15T23:30:49.841Z,25.80
2018-07-15T23:33:20.108Z,25.80
2018-07-15T23:35:50.542Z,25.80
2018-07-15T23:38:20.768Z,25.70
2018-07-15T23:43:20.309Z,25.60
2018-07-15T23:45:50.551Z,25.50
2018-07-15T23:48:20.942Z,25.50
2018-07-15T23:50:51.174Z,25.40
2018-07-15T23:53:21.665Z,25.30
2018-07-15T23:55:51.942Z,25.30
2018-07-15T23:58:22.703Z,25.30
